Millville Municipal Airport
KMIV : rendu visible

Aérodrome :











RETROUVEZ-NOUS SUR...

 
LOGIN :

S'inscrire | Disclaimer

   EN    FR    IT 

 









Légende :    VFR   VFR Marginal   IFR   IFR Intensif   IFR Très Intensif
Visi : 
Plafond : 
>= 8 km
>= 3000ft
5 à 8 km
1000 à 3000 ft
1500m à 5 km
500 à 1000 ft
800 à 1500m
200 à 500 ft
< 800m
< 200 ft
Symboles :   Orages  Brouillard  Fortes neiges  Fortes précipitations  Vent > 20 kt






- Altitude de l'aérodrome : 85 ft


KMIV - Millville Municipal

DERNIER METAR :
  • 241054Z AUTO 00000KT 10SM CLR M04/M07 A3007 RMK AO2 SLP182 I1000 T10441067

METARs EXPIRÉS :
  • 240954Z AUTO 00000KT 10SM CLR M04/M07 A3006 RMK AO2 SLP180 I1000 T10441067
  • 240854Z AUTO 00000KT 10SM CLR M04/M06 A3006 RMK AO2 SLP180 I1000 I3000 T10391061 56011

TAF KMIV
Valide du 24 à 12h jusqu'au 25 à 12h UTC


241120Z 2412/2512 VRB02KT P6SM FEW200
FM241500 21005KT P6SM SCT200
FM241900 20006KT P6SM BKN150
FM250700 VRB04KT P6SM VCSH BKN020 OVC070
FM250900 VRB03KT 6SM -RA BR BKN008 OVC020



MET'MAP, la Météo Aéronautique d'un coup d'oeil ! - Copyright ORBIFLY Décembre 2007 - Disclaimer

ORBIFLY MET'MAP TEAM :

Programmation & Développement : Alexandra Zaïnal
Sur une idée originale de : Baudouin d'Aumeries
Assistance à la programmation : Marc-Olivier Méhu
Soutien technique & logistique : Manuel Goepfert

Contact : metmap@orbifly.com




SOURCES & CREDITS :

   NOAA       Earth
Advisory